Time;durP1;ratioP1;P1;durP2;ratioP2;P2;SDS_P1;SDS_P2;PMS_P1;PMS_P2;Temp;Humidity;BMP_temperature;BMP_pressure;BME280_temperature;BME280_humidity;BME280_pressure;Samples;Min_cycle;Max_cycle;Signal;HPM_P1;HPM_P2
2022/10/05 00:01:23;;;;;;;9.13;3.78;;;7.70;99.90;;;;;;4967462;28;20031;-74
2022/10/05 00:03:49;;;;;;;2.55;2.30;;;7.60;99.90;;;;;;4965585;28;20031;-74
2022/10/05 00:06:16;;;;;;;8.27;3.70;;;;;;;;;;4967050;28;20059;-76
2022/10/05 00:08:42;;;;;;;6.18;4.00;;;7.50;99.90;;;;;;4966769;28;20034;-74
2022/10/05 00:11:13;;;;;;;4.78;4.30;;;7.50;99.90;;;;;;4967078;28;20050;-74
2022/10/05 00:13:39;;;;;;;4.45;3.10;;;7.50;99.90;;;;;;4967488;28;20037;-76
2022/10/05 00:16:18;;;;;;;4.10;3.25;;;7.50;99.90;;;;;;4966997;28;20027;-75
2022/10/05 00:18:48;;;;;;;5.18;4.53;;;7.50;99.90;;;;;;4968781;28;20062;-75
2022/10/05 00:21:16;;;;;;;4.40;3.97;;;7.50;99.90;;;;;;4969370;28;20033;-74
2022/10/05 00:23:42;;;;;;;4.50;4.07;;;7.50;99.90;;;;;;4969616;28;20038;-74
2022/10/05 00:26:19;;;;;;;9.38;3.78;;;7.50;99.90;;;;;;4969354;28;20266;-75
2022/10/05 00:28:48;;;;;;;6.55;3.30;;;7.50;99.90;;;;;;4978656;28;20259;-75
2022/10/05 00:31:24;;;;;;;4.07;2.78;;;7.50;99.90;;;;;;4968854;28;20713;-74
2022/10/05 00:33:50;;;;;;;3.05;2.33;;;7.40;99.90;;;;;;4969302;28;20122;-74
2022/10/05 00:36:16;;;;;;;4.30;2.70;;;7.30;99.90;;;;;;4970530;28;20161;-74
2022/10/05 00:38:43;;;;;;;3.97;2.08;;;9.60;99.90;;;;;;4973498;28;20022;-74
2022/10/05 00:41:15;;;;;;;4.55;3.08;;;7.40;99.90;;;;;;4968879;28;20023;-73
2022/10/05 00:43:44;;;;;;;6.78;2.85;;;7.40;99.90;;;;;;4985464;28;20029;-73
2022/10/05 00:46:38;;;;;;;8.07;2.92;;;7.40;99.90;;;;;;4970156;28;20027;-74
2022/10/05 00:49:18;;;;;;;6.47;2.80;;;7.20;99.90;;;;;;4985007;28;20503;-74
2022/10/05 00:51:52;;;;;;;11.70;4.07;;;7.10;99.90;;;;;;4966062;28;20062;-73
2022/10/05 00:54:45;;;;;;;2.45;1.90;;;7.10;99.90;;;;;;4966033;28;20022;-73
2022/10/05 00:57:33;;;;;;;3.20;2.85;;;7.00;99.90;;;;;;4979775;28;20073;-74
2022/10/05 01:00:06;;;;;;;4.53;2.85;;;7.10;99.90;;;;;;4974526;28;20026;-75
2022/10/05 01:02:42;;;;;;;4.72;2.50;;;7.00;99.90;;;;;;4973872;28;20349;-75
2022/10/05 01:05:35;;;;;;;4.60;3.75;;;7.10;99.90;;;;;;4974383;28;20022;-74
2022/10/05 01:08:22;;;;;;;4.22;3.28;;;7.00;99.90;;;;;;4974391;28;20065;-75
2022/10/05 01:10:59;;;;;;;5.63;3.55;;;7.00;99.90;;;;;;4974357;28;20023;-76
2022/10/05 01:13:30;;;;;;;4.63;2.88;;;7.10;99.90;;;;;;4989203;28;20035;-73
2022/10/05 01:16:22;;;;;;;7.72;3.53;;;7.20;99.90;;;;;;4974508;28;20023;-76
2022/10/05 01:19:35;;;;;;;15.23;4.90;;;7.20;99.90;;;;;;4969383;28;20031;-73
2022/10/05 01:22:22;;;;;;;4.28;3.38;;;7.20;99.90;;;;;;4974027;28;20035;-74
2022/10/05 01:25:15;;;;;;;3.95;2.55;;;7.10;99.90;;;;;;4974128;28;20018;-75
2022/10/05 01:27:51;;;;;;;7.45;3.80;;;7.10;99.90;;;;;;4973991;28;20051;-75
2022/10/05 01:30:19;;;;;;;8.15;2.90;;;7.00;99.90;;;;;;4972825;28;20042;-75
2022/10/05 01:32:59;;;;;;;7.85;3.60;;;7.10;99.90;;;;;;4983131;28;20391;-76
2022/10/05 01:35:46;;;;;;;5.30;2.83;;;7.00;99.90;;;;;;4988253;28;20030;-74
2022/10/05 01:38:30;;;;;;;4.45;3.42;;;7.10;99.90;;;;;;4973274;28;20026;-76
2022/10/05 01:41:11;;;;;;;3.30;2.80;;;7.00;99.90;;;;;;4973572;28;20023;-74
2022/10/05 01:43:39;;;;;;;5.82;2.58;;;7.00;99.90;;;;;;4974014;28;20050;-74
2022/10/05 01:46:14;;;;;;;6.10;2.45;;;6.90;99.90;;;;;;4973607;28;20027;-74
2022/10/05 01:49:17;;;;;;;1.73;1.50;;;6.80;99.90;;;;;;4972356;28;20089;-76
2022/10/05 01:52:09;;;;;;;1.88;1.75;;;6.70;99.90;;;;;;4976442;28;20109;-77
2022/10/05 01:54:47;;;;;;;4.20;2.20;;;6.70;99.90;;;;;;4976563;28;20423;-76
2022/10/05 01:57:28;;;;;;;5.10;3.10;;;6.80;99.90;;;;;;4975443;28;20023;-74
2022/10/05 02:00:10;;;;;;;10.45;3.10;;;6.80;99.90;;;;;;4980830;28;20026;-77
2022/10/05 02:02:41;;;;;;;4.07;2.13;;;6.70;99.90;;;;;;4977580;28;20106;-75
2022/10/05 02:05:16;;;;;;;3.53;2.40;;;6.70;99.90;;;;;;4972073;28;20121;-76
2022/10/05 02:07:54;;;;;;;3.03;2.15;;;6.60;99.90;;;;;;4972219;28;20383;-76
2022/10/05 02:10:35;;;;;;;5.63;2.50;;;6.60;99.90;;;;;;4973206;28;20031;-74
2022/10/05 02:13:29;;;;;;;2.53;2.08;;;6.60;99.90;;;;;;4988148;28;20089;-76
2022/10/05 02:16:02;;;;;;;4.57;2.08;;;6.60;99.90;;;;;;4972152;28;20134;-73
2022/10/05 02:18:37;;;;;;;2.28;1.98;;;6.70;99.90;;;;;;4968128;28;20023;-76
2022/10/05 02:21:03;;;;;;;6.97;3.00;;;6.80;99.90;;;;;;4972860;28;20034;-76
2022/10/05 02:23:32;;;;;;;42.17;4.82;;;6.90;99.90;;;;;;4972934;28;20341;-76
2022/10/05 02:26:00;;;;;;;11.65;3.00;;;6.90;99.90;;;;;;4972733;28;20022;-75
2022/10/05 02:28:53;;;;;;;3.65;2.75;;;7.00;99.90;;;;;;4972368;28;20157;-74
2022/10/05 02:31:26;;;;;;;6.03;2.67;;;6.80;99.90;;;;;;4969015;28;20618;-76
2022/10/05 02:34:20;;;;;;;3.33;2.10;;;6.60;99.90;;;;;;4972475;28;20026;-74
2022/10/05 02:36:50;;;;;;;3.03;2.78;;;6.60;99.90;;;;;;4972326;28;20038;-76
2022/10/05 02:39:41;;;;;;;6.78;4.00;;;6.50;99.90;;;;;;4972205;28;20027;-76
2022/10/05 02:42:33;;;;;;;4.90;2.47;;;6.60;99.90;;;;;;4971626;28;20434;-76
2022/10/05 02:45:10;;;;;;;7.57;2.25;;;6.50;99.90;;;;;;4963108;28;20035;-76
2022/10/05 02:47:40;;;;;;;2.95;2.55;;;6.60;99.90;;;;;;4970639;28;20023;-74
2022/10/05 02:50:19;;;;;;;2.80;2.60;;;6.50;99.90;;;;;;4971938;28;20496;-76
2022/10/05 02:52:58;;;;;;;3.88;3.53;;;6.50;99.90;;;;;;4966556;28;20027;-75
2022/10/05 02:55:48;;;;;;;4.70;1.58;;;6.50;99.90;;;;;;4971803;28;20493;-73
2022/10/05 02:58:19;;;;;;;14.18;3.17;;;6.40;99.90;;;;;;4985925;28;20031;-76
2022/10/05 03:01:02;;;;;;;4.95;2.00;;;6.40;99.90;;;;;;4970399;28;20088;-76
2022/10/05 03:03:38;;;;;;;1.88;1.63;;;6.40;99.90;;;;;;4971513;28;20023;-75
2022/10/05 03:06:16;;;;;;;7.68;3.30;;;6.40;99.90;;;;;;4971402;28;20050;-75
2022/10/05 03:09:05;;;;;;;2.67;1.73;;;6.40;99.90;;;;;;4971222;28;20038;-76
2022/10/05 03:11:40;;;;;;;9.27;3.42;;;6.40;99.90;;;;;;4971137;28;20029;-76
2022/10/05 03:14:23;;;;;;;5.82;2.38;;;6.30;99.90;;;;;;4978885;28;20034;-76
2022/10/05 03:17:04;;;;;;;3.17;1.63;;;6.30;99.90;;;;;;4969210;28;20037;-73
2022/10/05 03:19:53;;;;;;;5.60;2.83;;;6.20;99.90;;;;;;4971174;28;20027;-73
2022/10/05 03:22:48;;;;;;;1.75;1.20;;;6.20;99.90;;;;;;4969078;28;20054;-74
2022/10/05 03:25:32;;;;;;;2.65;2.13;;;6.10;99.90;;;;;;4969405;28;20037;-76
2022/10/05 03:28:24;;;;;;;7.05;2.22;;;6.10;99.90;;;;;;4969772;28;20027;-76
2022/10/05 03:31:01;;;;;;;2.50;1.90;;;6.10;99.90;;;;;;4971238;28;20050;-75
2022/10/05 03:33:35;;;;;;;10.73;5.03;;;6.10;99.90;;;;;;4971192;28;20023;-74
2022/10/05 03:36:31;;;;;;;12.13;4.85;;;6.00;99.90;;;;;;4978934;28;20133;-75
2022/10/05 03:39:06;;;;;;;10.07;6.38;;;6.00;99.90;;;;;;4986634;28;20045;-76
2022/10/05 03:41:53;;;;;;;4.30;3.30;;;6.10;99.90;;;;;;4971257;28;20030;-75
2022/10/05 03:44:34;;;;;;;8.95;3.55;;;6.00;99.90;;;;;;4970912;28;20018;-74
2022/10/05 03:47:24;;;;;;;10.48;6.07;;;6.00;99.90;;;;;;4971183;28;20077;-76
2022/10/05 03:50:05;;;;;;;11.13;4.15;;;6.00;99.90;;;;;;4976534;28;20047;-74
2022/10/05 03:52:40;;;;;;;3.17;2.45;;;6.00;99.90;;;;;;4970523;28;20019;-76
2022/10/05 03:55:18;;;;;;;6.00;3.38;;;6.00;99.90;;;;;;4971405;28;20034;-75
2022/10/05 03:57:45;;;;;;;3.78;1.95;;;6.00;99.90;;;;;;4964318;28;20019;-74
2022/10/05 04:00:18;;;;;;;3.63;2.58;;;6.00;99.90;;;;;;4970888;28;20054;-76
2022/10/05 04:02:53;;;;;;;4.43;2.25;;;6.00;99.90;;;;;;4969933;28;20030;-74
2022/10/05 04:05:42;;;;;;;3.78;2.17;;;6.10;99.90;;;;;;4970987;28;20050;-73
2022/10/05 04:08:25;;;;;;;4.45;3.30;;;6.10;99.90;;;;;;4970655;28;20134;-74
2022/10/05 04:10:54;;;;;;;11.98;3.85;;;6.20;99.90;;;;;;4971543;28;20035;-74
2022/10/05 04:13:41;;;;;;;4.15;2.42;;;6.10;99.90;;;;;;4971033;28;20487;-75
2022/10/05 04:16:28;;;;;;;2.33;2.13;;;6.20;99.90;;;;;;4970095;28;20139;-75
2022/10/05 04:19:17;;;;;;;2.90;1.60;;;6.20;99.90;;;;;;4971474;28;20030;-75
2022/10/05 04:21:51;;;;;;;4.22;2.00;;;6.20;99.90;;;;;;4969532;28;20093;-76
2022/10/05 04:24:31;;;;;;;3.60;1.80;;;6.20;99.90;;;;;;4971200;28;20053;-76
2022/10/05 04:27:07;;;;;;;3.17;2.88;;;6.20;99.90;;;;;;4969090;28;20034;-74
2022/10/05 04:30:03;;;;;;;2.95;2.13;;;6.20;99.90;;;;;;4970922;28;20035;-75
2022/10/05 04:32:40;;;;;;;2.00;1.60;;;6.20;99.90;;;;;;4970610;28;20035;-75
2022/10/05 04:35:09;;;;;;;2.58;1.65;;;6.20;99.90;;;;;;4971289;28;20015;-76
2022/10/05 04:38:05;;;;;;;5.47;2.40;;;6.20;99.90;;;;;;4971240;28;20023;-75
2022/10/05 04:41:15;;;;;;;2.60;1.48;;;6.10;99.90;;;;;;4970861;28;20027;-75
2022/10/05 04:44:08;;;;;;;3.22;2.22;;;6.00;99.90;;;;;;4970863;28;20031;-75
2022/10/05 04:47:19;;;;;;;3.55;2.35;;;6.00;99.90;;;;;;4971315;28;20043;-74
2022/10/05 04:50:02;;;;;;;1.73;1.60;;;5.90;99.90;;;;;;4969386;28;20221;-73
2022/10/05 04:52:44;;;;;;;5.53;2.15;;;5.80;99.90;;;;;;4970118;28;20066;-74
2022/10/05 04:55:31;;;;;;;4.07;1.92;;;6.50;99.90;;;;;;4969822;28;20042;-73
2022/10/05 04:58:23;;;;;;;1.35;1.25;;;5.70;99.90;;;;;;4971416;28;20494;-74
2022/10/05 05:01:22;;;;;;;2.22;2.03;;;5.70;99.90;;;;;;4971053;28;20037;-74
2022/10/05 05:04:07;;;;;;;;;;;5.60;99.90;;;;;;4971335;28;20106;-77
2022/10/05 05:06:56;;;;;;;1.95;1.77;;;5.70;99.90;;;;;;4970543;28;20008;-75
2022/10/05 05:09:27;;;;;;;;;;;5.60;99.90;;;;;;4971264;28;20065;-75
2022/10/05 05:12:17;;;;;;;2.30;2.10;;;5.70;99.90;;;;;;4970852;28;19906;-75
2022/10/05 05:14:50;;;;;;;4.30;1.55;;;5.70;99.90;;;;;;4970259;28;20051;-76
2022/10/05 05:17:24;;;;;;;5.18;1.23;;;5.70;99.90;;;;;;4970293;28;20403;-75
2022/10/05 05:19:57;;;;;;;1.63;1.52;;;5.70;99.90;;;;;;4970732;28;20023;-73
2022/10/05 05:22:37;;;;;;;5.00;1.00;;;5.70;99.90;;;;;;4970519;28;20055;-73
2022/10/05 05:25:12;;;;;;;1.42;1.08;;;5.70;99.90;;;;;;4970555;28;20039;-74
2022/10/05 05:28:10;;;;;;;3.90;2.72;;;8.90;99.90;;;;;;4985357;28;20047;-75
2022/10/05 05:31:19;;;;;;;1.85;1.75;;;5.60;99.90;;;;;;4968069;28;20051;-75
2022/10/05 05:33:50;;;;;;;1.48;1.27;;;5.50;99.90;;;;;;4967247;28;20022;-74
2022/10/05 05:36:26;;;;;;;0.98;0.98;;;5.50;99.90;;;;;;4967450;28;20039;-75
2022/10/05 05:39:04;;;;;;;4.20;2.10;;;5.40;99.90;;;;;;4971161;28;20126;-76
2022/10/05 05:41:42;;;;;;;3.20;1.70;;;5.40;99.90;;;;;;4974083;28;20034;-77
2022/10/05 05:44:23;;;;;;;1.55;1.45;;;5.40;99.90;;;;;;4974231;28;20026;-76
2022/10/05 05:46:57;;;;;;;11.23;2.67;;;5.40;99.90;;;;;;4974875;28;20180;-77
2022/10/05 05:50:00;;;;;;;5.78;1.77;;;5.30;99.90;;;;;;4981611;28;20498;-74
2022/10/05 05:52:45;;;;;;;1.30;1.30;;;5.30;99.90;;;;;;4972653;28;20680;-77
2022/10/05 05:55:39;;;;;;;3.30;0.95;;;5.40;99.90;;;;;;4966186;28;20458;-76
2022/10/05 05:58:15;;;;;;;2.15;1.95;;;5.40;99.90;;;;;;4963005;28;20271;-76
2022/10/05 06:00:59;;;;;;;1.52;1.35;;;5.40;99.90;;;;;;4968855;28;20113;-75
2022/10/05 06:03:50;;;;;;;2.13;1.20;;;5.40;99.90;;;;;;4968895;28;20031;-75
2022/10/05 06:06:17;;;;;;;2.20;1.33;;;5.40;99.90;;;;;;4969427;28;20553;-76
2022/10/05 06:08:55;;;;;;;1.48;1.38;;;5.50;99.90;;;;;;4968598;28;20598;-75
2022/10/05 06:11:25;;;;;;;1.60;1.48;;;5.50;99.90;;;;;;4968553;28;20018;-75
2022/10/05 06:13:53;;;;;;;1.35;1.25;;;5.60;99.90;;;;;;4968424;28;20054;-75
2022/10/05 06:16:37;;;;;;;1.55;1.08;;;7.20;99.90;;;;;;4968931;28;20018;-76
2022/10/05 06:19:14;;;;;;;2.10;1.20;;;5.60;99.90;;;;;;4970083;28;20362;-75
2022/10/05 06:21:49;;;;;;;0.85;0.85;;;5.70;99.90;;;;;;4970136;28;20024;-76
2022/10/05 06:24:22;;;;;;;1.52;1.40;;;5.80;99.90;;;;;;4968437;28;20125;-75
2022/10/05 06:27:18;;;;;;;1.40;1.30;;;5.90;99.90;;;;;;4969789;28;20026;-75
2022/10/05 06:30:13;;;;;;;3.92;1.90;;;5.90;99.90;;;;;;4969544;28;20038;-76
2022/10/05 06:33:03;;;;;;;2.55;1.08;;;6.00;99.90;;;;;;4969486;28;20022;-75
2022/10/05 06:35:48;;;;;;;2.72;2.15;;;6.10;99.90;;;;;;4969907;28;20023;-75
2022/10/05 06:39:01;;;;;;;1.58;1.20;;;6.20;99.90;;;;;;4969427;28;20035;-75
2022/10/05 06:41:50;;;;;;;2.58;1.60;;;6.70;99.90;;;;;;4952635;28;20514;-75
2022/10/05 06:44:39;;;;;;;1.95;1.15;;;6.30;99.90;;;;;;4969633;28;20512;-74
2022/10/05 06:47:22;;;;;;;2.88;1.52;;;6.50;99.90;;;;;;4969003;28;20039;-75
2022/10/05 06:50:03;;;;;;;2.42;1.75;;;6.60;99.90;;;;;;4968773;28;20042;-76
2022/10/05 06:52:50;;;;;;;2.40;2.20;;;6.70;99.90;;;;;;4968033;28;20033;-76
2022/10/05 06:55:27;;;;;;;7.15;2.17;;;6.80;99.90;;;;;;4969614;28;20031;-76
2022/10/05 06:58:02;;;;;;;5.03;3.72;;;7.00;99.90;;;;;;4971381;28;20560;-76
2022/10/05 07:00:49;;;;;;;19.23;9.65;;;7.10;99.90;;;;;;4968700;28;20034;-76
2022/10/05 07:03:30;;;;;;;33.60;13.85;;;7.20;99.90;;;;;;4968010;28;20041;-75
2022/10/05 07:06:15;;;;;;;29.00;13.57;;;7.30;99.90;;;;;;4968964;28;20074;-75
2022/10/05 07:09:19;;;;;;;8.75;5.47;;;7.50;99.90;;;;;;4968762;28;20041;-75
2022/10/05 07:11:58;;;;;;;6.53;3.25;;;7.70;99.90;;;;;;4968229;28;20058;-74
2022/10/05 07:14:29;;;;;;;6.90;3.83;;;7.90;99.90;;;;;;4969107;28;20030;-75
2022/10/05 07:17:05;;;;;;;4.22;2.88;;;8.10;99.90;;;;;;4969423;28;20258;-75
2022/10/05 07:19:37;;;;;;;4.35;3.00;;;8.30;99.90;;;;;;4969239;28;20138;-75
2022/10/05 07:22:08;;;;;;;4.47;3.13;;;8.50;99.90;;;;;;4969018;28;20030;-77
2022/10/05 07:24:48;;;;;;;4.97;3.40;;;10.00;99.90;;;;;;4968925;28;20388;-75
2022/10/05 07:27:22;;;;;;;11.73;3.80;;;8.70;99.90;;;;;;4969082;28;20098;-75
2022/10/05 07:30:09;;;;;;;3.05;2.35;;;8.90;99.90;;;;;;4968539;28;20046;-76
2022/10/05 07:32:38;;;;;;;6.55;3.75;;;8.90;99.90;;;;;;4968834;28;20488;-76
2022/10/05 07:35:08;;;;;;;3.60;2.85;;;9.00;99.90;;;;;;4969621;28;20030;-77
2022/10/05 07:37:56;;;;;;;4.47;3.22;;;9.10;99.90;;;;;;4968925;28;20027;-74
2022/10/05 07:40:37;;;;;;;3.85;3.10;;;9.20;99.90;;;;;;4964937;28;20031;-75
2022/10/05 07:43:40;;;;;;;5.43;2.67;;;9.30;99.90;;;;;;4949107;28;20469;-74
2022/10/05 07:46:42;;;;;;;3.28;2.53;;;9.40;99.90;;;;;;4949488;28;20031;-76
2022/10/05 07:49:24;;;;;;;2.78;2.58;;;9.50;99.90;;;;;;4949129;28;20047;-76
2022/10/05 07:52:03;;;;;;;3.30;2.50;;;9.60;99.90;;;;;;4963978;28;20031;-75
2022/10/05 07:54:50;;;;;;;2.13;1.88;;;9.70;99.90;;;;;;4949008;28;20034;-77
2022/10/05 07:57:38;;;;;;;2.03;1.90;;;9.90;99.90;;;;;;4949047;29;20059;-75
2022/10/05 08:00:19;;;;;;;3.03;1.77;;;10.00;99.90;;;;;;4948871;28;20039;-75
2022/10/05 08:03:01;;;;;;;1.85;1.75;;;10.10;99.90;;;;;;4948182;28;20023;-76
2022/10/05 08:05:45;;;;;;;3.20;1.77;;;10.20;99.90;;;;;;4948632;28;20051;-76
2022/10/05 08:08:24;;;;;;;2.35;1.75;;;10.40;99.90;;;;;;4948914;28;20035;-74
2022/10/05 08:11:24;;;;;;;2.38;1.80;;;10.40;99.90;;;;;;4948975;28;20555;-74
2022/10/05 08:14:24;;;;;;;2.47;1.67;;;10.60;99.90;;;;;;4950368;28;20046;-77
2022/10/05 08:16:53;;;;;;;2.30;2.03;;;10.70;99.90;;;;;;4948773;28;20035;-75
2022/10/05 08:19:32;;;;;;;4.30;2.23;;;10.90;99.90;;;;;;4948481;28;20023;-76
2022/10/05 08:22:04;;;;;;;1.67;1.35;;;11.20;99.90;;;;;;4948505;28;20031;-76
2022/10/05 08:25:04;;;;;;;2.58;2.03;;;11.20;99.90;;;;;;4963260;28;20062;-77
2022/10/05 08:27:48;;;;;;;2.58;2.05;;;11.30;99.90;;;;;;4948734;28;20381;-75
2022/10/05 08:30:15;;;;;;;7.60;2.53;;;11.70;99.90;;;;;;4948611;28;20062;-75
2022/10/05 08:33:06;;;;;;;3.33;2.65;;;12.00;99.90;;;;;;4963034;28;20027;-76
2022/10/05 08:35:42;;;;;;;6.68;5.50;;;11.90;99.90;;;;;;4948594;28;20027;-76
2022/10/05 08:38:21;;;;;;;4.63;3.25;;;12.00;99.90;;;;;;4949137;28;20031;-76
2022/10/05 08:41:28;;;;;;;3.72;2.45;;;12.00;99.90;;;;;;4948623;28;20146;-77
2022/10/05 08:44:15;;;;;;;2.45;1.30;;;12.10;99.90;;;;;;4948594;28;20050;-76
2022/10/05 08:46:58;;;;;;;1.80;1.70;;;12.10;99.90;;;;;;4948636;28;20103;-76
2022/10/05 08:49:57;;;;;;;3.03;2.30;;;12.20;99.90;;;;;;4950273;28;20098;-75
2022/10/05 08:52:39;;;;;;;2.53;2.00;;;12.30;99.90;;;;;;4967833;28;20422;-75
2022/10/05 08:55:32;;;;;;;5.03;2.97;;;12.40;99.90;;;;;;4967996;28;20080;-75
2022/10/05 08:58:19;;;;;;;2.67;2.35;;;12.40;99.90;;;;;;4966309;28;20035;-75
2022/10/05 09:01:00;;;;;;;4.97;1.10;;;12.60;99.90;;;;;;4967420;28;20050;-76
2022/10/05 09:04:08;;;;;;;2.42;1.50;;;12.70;99.90;;;;;;4966522;28;20042;-76
2022/10/05 09:07:05;;;;;;;1.40;1.30;;;12.70;99.90;;;;;;4964945;28;20090;-75
2022/10/05 09:10:14;;;;;;;7.57;1.50;;;12.90;99.90;;;;;;4967389;28;20035;-75
2022/10/05 09:13:09;;;;;;;1.40;1.17;;;13.00;99.90;;;;;;4967264;28;20027;-75
2022/10/05 09:16:08;;;;;;;1.80;1.35;;;13.10;99.90;;;;;;4968080;28;20506;-75
2022/10/05 09:18:36;;;;;;;3.53;2.17;;;13.20;99.90;;;;;;4971355;28;20023;-75
2022/10/05 09:21:12;;;;;;;2.58;1.50;;;13.40;99.90;;;;;;4971305;28;20106;-77
2022/10/05 09:23:39;;;;;;;1.13;0.80;;;13.50;99.90;;;;;;4971153;28;20153;-75
2022/10/05 09:26:52;;;;;;;1.95;1.08;;;13.50;99.90;;;;;;4974226;28;20090;-76
2022/10/05 09:29:43;;;;;;;0.85;0.85;;;13.50;99.90;;;;;;4969516;28;20109;-76
2022/10/05 09:32:33;;;;;;;1.17;0.93;;;13.60;99.90;;;;;;4965323;28;20192;-75
2022/10/05 09:35:39;;;;;;;0.80;0.80;;;13.70;99.90;;;;;;4973342;28;20119;-77
2022/10/05 09:38:23;;;;;;;0.98;0.98;;;13.70;99.90;;;;;;4973450;28;20026;-76
2022/10/05 09:41:23;;;;;;;1.45;0.85;;;13.80;99.90;;;;;;4972349;28;20023;-75
2022/10/05 09:44:19;;;;;;;1.02;0.65;;;14.00;99.90;;;;;;4971713;28;20029;-76
2022/10/05 09:47:12;;;;;;;1.30;1.20;;;14.10;99.90;;;;;;4971549;28;20031;-75
2022/10/05 09:50:28;;;;;;;1.38;0.70;;;14.30;99.90;;;;;;4953156;28;20031;-75
2022/10/05 09:53:23;;;;;;;1.08;1.00;;;14.40;99.90;;;;;;4951734;28;20061;-76
2022/10/05 09:55:49;;;;;;;1.38;1.20;;;14.50;99.90;;;;;;4950195;28;20282;-75
2022/10/05 09:58:35;;;;;;;0.75;0.68;;;14.80;99.90;;;;;;4968994;28;20284;-76
2022/10/05 10:01:39;;;;;;;1.23;1.08;;;14.80;99.90;;;;;;4970621;28;20030;-75
2022/10/05 10:04:29;;;;;;;1.88;0.98;;;14.90;99.90;;;;;;4970024;28;20030;-76
2022/10/05 10:07:03;;;;;;;;;;;15.00;99.90;;;;;;4970483;28;20057;-76
2022/10/05 10:09:35;;;;;;;0.80;0.80;;;15.20;99.90;;;;;;4968833;28;19929;-77
2022/10/05 10:12:40;;;;;;;1.75;0.90;;;15.30;99.90;;;;;;4970539;28;20232;-75
2022/10/05 10:15:15;;;;;;;2.05;0.98;;;15.40;99.90;;;;;;4968529;28;20077;-76
2022/10/05 10:17:46;;;;;;;0.75;0.75;;;15.50;99.90;;;;;;4970629;28;20019;-78
2022/10/05 10:20:19;;;;;;;1.70;1.60;;;15.70;99.90;;;;;;4970164;28;20102;-76
2022/10/05 10:23:10;;;;;;;2.42;1.08;;;15.80;99.90;;;;;;4968620;28;20089;-74
2022/10/05 10:26:11;;;;;;;2.15;1.33;;;16.10;99.90;;;;;;4968621;28;20642;-74
2022/10/05 10:29:00;;;;;;;4.13;2.75;;;16.10;99.90;;;;;;4981486;28;20054;-74
2022/10/05 10:31:41;;;;;;;;;;;16.30;99.90;;;;;;4969123;28;20088;-77
2022/10/05 10:34:30;;;;;;;0.98;0.95;;;16.60;99.90;;;;;;4968610;28;19913;-76
2022/10/05 10:37:20;;;;;;;0.90;0.85;;;16.60;99.90;;;;;;4966931;28;20057;-75
2022/10/05 10:40:07;;;;;;;0.93;0.90;;;16.70;99.90;;;;;;4968421;28;20035;-77
2022/10/05 10:42:42;;;;;;;0.60;0.60;;;16.80;99.90;;;;;;4968012;28;20503;-75
2022/10/05 10:45:10;;;;;;;1.52;1.42;;;17.10;99.90;;;;;;4969679;28;20424;-77
2022/10/05 10:47:49;;;;;;;0.60;0.60;;;17.20;99.90;;;;;;4969361;28;20038;-78
2022/10/05 10:50:31;;;;;;;0.68;0.68;;;17.30;99.90;;;;;;4969141;28;20043;-77
2022/10/05 10:53:06;;;;;;;0.70;0.43;;;17.30;99.90;;;;;;4969906;28;20054;-74
2022/10/05 10:56:02;;;;;;;0.57;0.52;;;17.50;99.90;;;;;;4969954;28;20027;-78
2022/10/05 10:58:46;;;;;;;0.50;0.50;;;17.60;99.90;;;;;;4969091;28;20027;-76
2022/10/05 11:01:28;;;;;;;0.60;0.60;;;17.70;99.90;;;;;;4969230;28;20035;-77
2022/10/05 11:03:53;;;;;;;0.50;0.50;;;17.80;99.90;;;;;;4970046;28;20357;-77
2022/10/05 11:06:51;;;;;;;0.63;0.63;;;18.00;99.90;;;;;;4969185;28;20133;-78
2022/10/05 11:09:54;;;;;;;11.77;0.82;;;18.30;99.90;;;;;;4978017;28;20074;-75
2022/10/05 11:12:57;;;;;;;0.80;0.70;;;18.30;99.90;;;;;;4966095;28;20415;-76
2022/10/05 11:15:32;;;;;;;1.42;0.80;;;18.50;99.90;;;;;;4966837;28;20038;-77
2022/10/05 11:18:18;;;;;;;0.40;0.40;;;18.60;99.90;;;;;;4968003;28;20031;-75
2022/10/05 11:21:25;;;;;;;0.65;0.40;;;18.40;99.90;;;;;;4968310;28;20068;-76
2022/10/05 11:24:28;;;;;;;0.50;0.50;;;18.80;99.90;;;;;;4967457;28;20038;-76
2022/10/05 11:27:26;;;;;;;0.43;0.43;;;19.00;99.90;;;;;;4968010;28;20038;-76
2022/10/05 11:30:10;;;;;;;0.38;0.38;;;19.00;99.90;;;;;;4958421;28;20237;-76
2022/10/05 11:32:42;;;;;;;0.45;0.40;;;19.00;99.90;;;;;;4967587;28;20019;-76
2022/10/05 11:35:39;;;;;;;0.22;0.22;;;19.20;99.90;;;;;;4968102;28;20380;-77
2022/10/05 11:38:42;;;;;;;1.75;0.50;;;19.30;99.90;;;;;;4970789;28;20026;-76
2022/10/05 11:41:11;;;;;;;0.35;0.32;;;19.50;99.90;;;;;;4967532;28;20050;-75
2022/10/05 11:43:48;;;;;;;0.50;0.50;;;19.50;99.90;;;;;;4968312;28;20518;-74
2022/10/05 11:46:39;;;;;;;1.50;0.50;;;19.70;99.90;;;;;;4968279;28;20027;-73
2022/10/05 11:49:23;;;;;;;1.15;1.05;;;19.70;99.90;;;;;;4949931;28;20043;-75
2022/10/05 11:52:01;;;;;;;1.20;0.52;;;19.80;99.90;;;;;;4974756;28;20150;-76
2022/10/05 11:54:37;;;;;;;0.38;0.38;;;19.90;99.90;;;;;;4968275;28;20023;-76
2022/10/05 11:57:27;;;;;;;2.05;0.40;;;20.00;99.90;;;;;;4983076;28;20027;-76
2022/10/05 12:00:01;;;;;;;1.40;0.45;;;20.20;99.90;;;;;;4963867;28;20038;-75
2022/10/05 12:02:46;;;;;;;0.60;0.40;;;20.40;99.90;;;;;;4968498;28;20089;-76
2022/10/05 12:05:21;;;;;;;1.23;0.65;;;21.20;99.90;;;;;;4966764;28;20097;-75
2022/10/05 12:08:02;;;;;;;0.50;0.50;;;21.20;99.90;;;;;;4966799;28;20395;-76
2022/10/05 12:10:49;;;;;;;1.00;0.73;;;21.70;99.90;;;;;;4972177;28;20414;-76
2022/10/05 12:13:32;;;;;;;1.15;0.40;;;23.10;95.80;;;;;;4967735;28;20069;-78
2022/10/05 12:16:15;;;;;;;0.63;0.50;;;25.10;74.80;;;;;;4968638;28;20035;-76
2022/10/05 12:19:05;;;;;;;0.32;0.28;;;26.90;64.50;;;;;;4966656;28;20547;-76
2022/10/05 12:21:58;;;;;;;4.38;1.38;;;28.00;58.30;;;;;;4986904;28;20149;-78
2022/10/05 12:24:41;;;;;;;0.98;0.20;;;28.40;55.80;;;;;;4974582;28;20041;-75
2022/10/05 12:27:21;;;;;;;0.20;0.20;;;28.80;55.50;;;;;;4968760;28;20045;-77
2022/10/05 12:30:28;;;;;;;0.30;0.30;;;29.00;54.70;;;;;;4966662;28;20542;-78
2022/10/05 12:33:15;;;;;;;0.25;0.25;;;30.10;53.10;;;;;;4970011;28;20033;-76
2022/10/05 12:35:51;;;;;;;0.47;0.47;;;30.60;51.30;;;;;;4971225;28;20027;-76
2022/10/05 12:38:36;;;;;;;0.35;0.25;;;30.50;51.50;;;;;;4973403;28;20019;-76
2022/10/05 12:41:20;;;;;;;0.35;0.17;;;30.70;52.10;;;;;;4969632;28;20026;-76
2022/10/05 12:43:46;;;;;;;0.40;0.32;;;;;;;;;;4971027;28;20027;-78
2022/10/05 12:46:22;;;;;;;0.30;0.30;;;31.30;51.00;;;;;;4967900;28;20031;-76
2022/10/05 12:49:29;;;;;;;0.20;0.10;;;31.40;50.50;;;;;;4969454;28;20035;-75
2022/10/05 12:51:56;;;;;;;0.40;0.20;;;31.40;48.30;;;;;;4976025;28;20042;-75
2022/10/05 12:54:37;;;;;;;0.68;0.20;;;29.80;49.60;;;;;;4972873;28;20050;-75
2022/10/05 12:57:02;;;;;;;1.75;0.20;;;29.60;50.20;;;;;;4976850;28;20437;-75
2022/10/05 12:59:37;;;;;;;0.30;0.30;;;29.30;52.00;;;;;;4973140;28;20349;-75
2022/10/05 13:02:51;;;;;;;0.57;0.45;;;29.80;50.50;;;;;;4973301;28;20372;-75
2022/10/05 13:05:31;;;;;;;0.20;0.20;;;30.40;50.60;;;;;;4954669;28;20035;-77
2022/10/05 13:08:06;;;;;;;1.38;0.50;;;;;;;;;;4974274;28;20027;-76
2022/10/05 13:11:04;;;;;;;0.30;0.28;;;29.70;50.80;;;;;;4971043;28;20057;-76
2022/10/05 13:13:41;;;;;;;0.53;0.27;;;29.40;51.90;;;;;;4972587;28;20396;-76
2022/10/05 13:16:37;;;;;;;0.65;0.20;;;29.60;51.90;;;;;;4971214;28;20066;-76
2022/10/05 13:19:31;;;;;;;0.28;0.20;;;30.40;52.00;;;;;;4971255;28;20027;-77
2022/10/05 13:22:32;;;;;;;0.70;0.30;;;31.30;48.90;;;;;;4972803;28;20049;-78
2022/10/05 13:25:17;;;;;;;0.40;0.40;;;31.90;48.80;;;;;;4965374;28;20106;-78
2022/10/05 13:27:51;;;;;;;0.30;0.20;;;32.30;47.10;;;;;;4973808;28;20093;-79
2022/10/05 13:30:20;;;;;;;4.75;0.20;;;32.70;47.30;;;;;;4972386;28;20121;-77
2022/10/05 13:33:02;;;;;;;2.50;0.20;;;32.20;47.00;;;;;;4972719;28;20027;-77
2022/10/05 13:35:30;;;;;;;0.65;0.20;;;32.60;48.10;;;;;;4970838;28;20420;-77
2022/10/05 13:38:02;;;;;;;;;;;33.20;47.40;;;;;;4961137;28;20023;-77
2022/10/05 13:40:32;;;;;;;0.30;0.30;;;33.00;46.80;;;;;;4968055;28;20194;-77
2022/10/05 13:43:16;;;;;;;0.20;0.20;;;32.60;47.00;;;;;;4953062;28;20023;-76
2022/10/05 13:45:53;;;;;;;0.68;0.20;;;31.80;47.90;;;;;;4953748;28;20031;-77
2022/10/05 13:48:49;;;;;;;0.15;0.15;;;31.20;48.60;;;;;;4953104;28;20469;-77
2022/10/05 13:51:21;;;;;;;0.73;0.38;;;31.40;49.80;;;;;;4953044;28;20086;-77
2022/10/05 13:54:27;;;;;;;0.40;0.25;;;32.00;48.00;;;;;;4951905;28;20027;-76
2022/10/05 13:57:20;;;;;;;0.32;0.32;;;31.00;49.50;;;;;;4953659;29;20033;-76
2022/10/05 13:59:52;;;;;;;0.50;0.50;;;30.70;50.10;;;;;;4951503;28;20028;-76
2022/10/05 14:02:40;;;;;;;0.52;0.30;;;30.90;50.80;;;;;;4952793;28;20032;-76
2022/10/05 14:05:21;;;;;;;0.10;0.10;;;32.00;47.90;;;;;;4953104;28;20027;-76
2022/10/05 14:07:57;;;;;;;0.70;0.45;;;32.10;48.60;;;;;;4952926;28;20047;-76
2022/10/05 14:10:44;;;;;;;4.60;0.20;;;32.20;48.90;;;;;;4952696;28;20034;-77
2022/10/05 14:13:18;;;;;;;0.93;0.20;;;32.50;48.70;;;;;;4952562;28;20427;-76
2022/10/05 14:16:15;;;;;;;6.93;0.73;;;32.50;50.00;;;;;;4951343;28;20019;-77
2022/10/05 14:19:04;;;;;;;0.75;0.40;;;32.40;50.40;;;;;;4954705;28;20035;-76